createdAt,value
2024-02-19T00:01:09.705Z,2.95
2024-02-19T00:03:48.605Z,3.16
2024-02-19T00:06:15.696Z,3.32
2024-02-19T00:08:42.440Z,3.45
2024-02-19T00:11:10.511Z,3.55
2024-02-19T00:13:38.492Z,3.64
2024-02-19T00:16:05.955Z,3.77
2024-02-19T00:18:32.835Z,3.87
2024-02-19T00:21:00.504Z,3.92
2024-02-19T00:23:27.978Z,3.92
2024-02-19T00:25:55.135Z,4.05
2024-02-19T00:28:22.076Z,4.18
2024-02-19T00:30:49.470Z,4.28
2024-02-19T00:33:16.487Z,4.37
2024-02-19T00:35:43.570Z,4.44
2024-02-19T00:38:10.921Z,4.51
2024-02-19T00:40:38.995Z,4.57
2024-02-19T00:43:06.977Z,4.64
2024-02-19T00:45:34.157Z,4.69
2024-02-19T00:48:01.106Z,4.71
2024-02-19T00:50:28.260Z,4.78
2024-02-19T00:52:55.023Z,4.84
2024-02-19T00:55:22.501Z,4.89
2024-02-19T00:57:49.318Z,4.95
2024-02-19T01:00:17.615Z,4.97
2024-02-19T01:02:44.441Z,5.01
2024-02-19T01:05:11.583Z,5.02
2024-02-19T01:07:38.463Z,5.03
2024-02-19T01:10:06.083Z,5.07
2024-02-19T01:12:32.876Z,5.09
2024-02-19T01:14:59.882Z,5.10
2024-02-19T01:17:26.960Z,5.13
2024-02-19T01:19:54.140Z,5.15
2024-02-19T01:22:21.090Z,5.15
2024-02-19T01:24:49.530Z,5.18
2024-02-19T01:27:16.403Z,5.21
2024-02-19T01:29:43.446Z,5.22
2024-02-19T01:32:10.319Z,5.24
2024-02-19T01:34:37.575Z,5.25
2024-02-19T01:37:06.217Z,5.26
2024-02-19T01:39:33.872Z,5.30
2024-02-19T01:42:00.652Z,5.29
2024-02-19T01:44:27.738Z,5.30
2024-02-19T01:46:54.799Z,5.30
2024-02-19T01:49:22.260Z,5.30
2024-02-19T01:51:49.992Z,5.31
2024-02-19T01:54:17.723Z,5.32
2024-02-19T01:56:45.115Z,5.32
2024-02-19T01:59:15.565Z,5.34
2024-02-19T02:01:43.957Z,5.37
2024-02-19T02:04:12.934Z,5.37
2024-02-19T02:06:41.009Z,5.39
2024-02-19T02:09:08.642Z,5.38
2024-02-19T02:11:35.852Z,5.39
2024-02-19T02:14:03.329Z,5.41
2024-02-19T02:16:30.463Z,5.43
2024-02-19T02:18:57.964Z,5.48
2024-02-19T02:21:25.245Z,5.58
2024-02-19T02:23:52.659Z,5.62
2024-02-19T02:26:19.481Z,5.67
2024-02-19T02:28:46.566Z,5.70
2024-02-19T02:31:13.531Z,5.74
2024-02-19T02:33:40.933Z,5.77
2024-02-19T02:36:10.943Z,5.83
2024-02-19T02:38:37.905Z,5.86
2024-02-19T02:41:05.011Z,5.89
2024-02-19T02:43:34.972Z,5.93
2024-02-19T02:46:02.449Z,5.97
2024-02-19T02:48:29.820Z,6.00
2024-02-19T02:50:56.639Z,6.02
2024-02-19T02:53:24.853Z,6.04
2024-02-19T02:55:51.793Z,6.07
2024-02-19T02:58:19.006Z,6.08
2024-02-19T03:00:46.018Z,6.13
2024-02-19T03:03:13.270Z,6.15
2024-02-19T03:05:40.315Z,6.17
2024-02-19T03:08:08.818Z,6.15
2024-02-19T03:10:35.777Z,6.13
2024-02-19T03:13:04.078Z,6.13
2024-02-19T03:15:31.200Z,6.13
2024-02-19T03:17:58.341Z,6.11
2024-02-19T03:20:25.247Z,6.11
2024-02-19T03:22:53.327Z,6.09
2024-02-19T03:25:20.520Z,6.10
2024-02-19T03:27:47.965Z,6.11
2024-02-19T03:30:15.116Z,6.13
2024-02-19T03:32:42.268Z,6.14
2024-02-19T03:35:09.373Z,6.13
2024-02-19T03:37:36.820Z,6.15
2024-02-19T03:40:07.942Z,6.16
2024-02-19T03:42:36.185Z,6.13
2024-02-19T03:45:03.628Z,6.15
2024-02-19T03:47:30.687Z,6.16
2024-02-19T03:49:57.955Z,6.16
2024-02-19T03:52:25.168Z,6.16
2024-02-19T03:54:52.290Z,6.16
2024-02-19T03:57:19.588Z,6.17
2024-02-19T03:59:46.425Z,6.21
2024-02-19T04:02:13.547Z,6.18
2024-02-19T04:04:40.453Z,6.19
2024-02-19T04:07:07.775Z,6.19
2024-02-19T04:09:36.418Z,6.17
2024-02-19T04:12:05.755Z,6.18
2024-02-19T04:14:32.745Z,6.20
2024-02-19T04:17:00.165Z,6.23
2024-02-19T04:19:29.015Z,6.23
2024-02-19T04:21:56.279Z,6.21
2024-02-19T04:24:23.063Z,6.20
2024-02-19T04:26:50.104Z,6.18
2024-02-19T04:29:17.122Z,6.16
2024-02-19T04:31:44.435Z,6.15
2024-02-19T04:34:11.913Z,6.14
2024-02-19T04:36:39.214Z,6.16
2024-02-19T04:39:06.070Z,6.15
2024-02-19T04:41:33.454Z,6.15
2024-02-19T04:44:00.351Z,6.15
2024-02-19T04:46:27.629Z,6.15
2024-02-19T04:48:54.883Z,6.13
2024-02-19T04:51:22.093Z,6.15
2024-02-19T04:53:48.868Z,6.17
2024-02-19T04:56:16.438Z,6.17
2024-02-19T04:58:43.217Z,6.16
2024-02-19T05:01:10.612Z,6.18
2024-02-19T05:03:37.597Z,6.18
2024-02-19T05:06:05.172Z,6.19
2024-02-19T05:08:31.994Z,6.17
2024-02-19T05:10:59.144Z,6.24
2024-02-19T05:13:26.059Z,6.27
2024-02-19T05:15:53.345Z,6.27
2024-02-19T05:18:20.677Z,6.27
2024-02-19T05:20:48.247Z,6.28
2024-02-19T05:23:15.087Z,6.29
2024-02-19T05:25:42.187Z,6.28
2024-02-19T05:28:09.089Z,6.28
2024-02-19T05:30:37.625Z,6.29
2024-02-19T05:33:05.744Z,6.30
2024-02-19T05:35:33.033Z,6.31
2024-02-19T05:37:59.894Z,6.35
2024-02-19T05:40:27.078Z,6.37
2024-02-19T05:42:54.145Z,6.38
2024-02-19T05:45:21.293Z,6.40
2024-02-19T05:47:49.338Z,6.45
2024-02-19T05:50:16.887Z,6.47
2024-02-19T05:52:43.822Z,6.49
2024-02-19T05:55:11.226Z,6.53
2024-02-19T05:57:39.095Z,6.59
2024-02-19T06:00:08.573Z,6.63
2024-02-19T06:02:35.718Z,6.67
2024-02-19T06:05:05.774Z,6.69
2024-02-19T06:07:34.000Z,6.70
2024-02-19T06:10:01.137Z,6.74
2024-02-19T06:12:28.119Z,6.76
2024-02-19T06:14:55.174Z,6.76
2024-02-19T06:17:22.921Z,6.76
2024-02-19T06:19:50.061Z,6.75
2024-02-19T06:22:16.861Z,6.72
2024-02-19T06:24:47.299Z,6.70
2024-02-19T06:27:14.279Z,6.70
2024-02-19T06:29:41.489Z,6.70
2024-02-19T06:32:08.349Z,6.66
2024-02-19T06:34:36.638Z,6.66
2024-02-19T06:37:03.973Z,6.68
2024-02-19T06:39:31.131Z,6.68
2024-02-19T06:41:58.625Z,6.70
2024-02-19T06:44:25.683Z,6.71
2024-02-19T06:46:52.506Z,6.73
2024-02-19T06:49:23.449Z,6.76
2024-02-19T06:51:51.739Z,6.78
2024-02-19T06:54:19.114Z,6.79
2024-02-19T06:56:46.010Z,6.83
2024-02-19T06:59:13.401Z,6.84
2024-02-19T07:01:40.527Z,6.87
2024-02-19T07:04:07.795Z,6.87
2024-02-19T07:06:34.653Z,6.88
2024-02-19T07:09:01.932Z,6.88
2024-02-19T07:11:28.825Z,6.90
2024-02-19T07:13:56.873Z,6.91
2024-02-19T07:16:24.219Z,6.96
2024-02-19T07:18:51.615Z,6.99
2024-02-19T07:21:22.163Z,7.05
2024-02-19T07:23:49.443Z,7.09
2024-02-19T07:26:16.435Z,7.12
2024-02-19T07:28:43.737Z,7.19
2024-02-19T07:31:10.992Z,7.25
2024-02-19T07:33:38.193Z,7.31
2024-02-19T07:36:05.316Z,7.35
2024-02-19T07:38:32.361Z,7.38
2024-02-19T07:40:59.210Z,7.42
2024-02-19T07:43:26.256Z,7.46
2024-02-19T07:45:53.003Z,7.52
2024-02-19T07:48:20.201Z,7.56
2024-02-19T07:50:47.569Z,7.60
2024-02-19T07:53:17.032Z,7.64
2024-02-19T07:55:44.929Z,7.69
2024-02-19T07:58:12.242Z,7.75
2024-02-19T08:00:39.143Z,7.80
2024-02-19T08:03:06.327Z,7.79
2024-02-19T08:05:33.299Z,7.79
2024-02-19T08:08:00.613Z,7.79
2024-02-19T08:10:27.587Z,7.83
2024-02-19T08:12:54.880Z,7.90
2024-02-19T08:15:21.788Z,7.94
2024-02-19T08:17:50.037Z,7.98
2024-02-19T08:20:16.923Z,7.99
2024-02-19T08:22:46.704Z,7.98
2024-02-19T08:25:16.604Z,7.93
2024-02-19T08:27:43.715Z,7.90
2024-02-19T08:30:10.861Z,7.92
2024-02-19T08:32:38.028Z,7.95
2024-02-19T08:35:05.762Z,7.98
2024-02-19T08:37:32.918Z,8.02
2024-02-19T08:39:59.819Z,8.09
2024-02-19T08:42:26.879Z,8.12
2024-02-19T08:44:53.618Z,8.16
2024-02-19T08:47:20.760Z,8.12
2024-02-19T08:49:47.892Z,8.00
2024-02-19T08:52:15.753Z,7.93
2024-02-19T08:54:42.691Z,7.95
2024-02-19T08:57:09.807Z,8.05
2024-02-19T08:59:36.888Z,8.16
2024-02-19T09:02:04.711Z,8.23
2024-02-19T09:04:31.926Z,8.27
2024-02-19T09:06:59.417Z,8.30
2024-02-19T09:09:26.343Z,8.32
2024-02-19T09:11:53.421Z,8.25
2024-02-19T09:14:20.280Z,8.32
2024-02-19T09:16:47.485Z,8.43
2024-02-19T09:19:16.864Z,8.59
2024-02-19T09:21:46.832Z,8.62
2024-02-19T09:24:13.630Z,8.55
2024-02-19T09:26:41.638Z,8.52
2024-02-19T09:29:08.490Z,8.47
2024-02-19T09:31:35.607Z,8.42
2024-02-19T09:34:02.620Z,8.35
2024-02-19T09:36:29.811Z,8.36
2024-02-19T09:38:56.556Z,8.34
2024-02-19T09:41:24.059Z,8.35
2024-02-19T09:43:52.684Z,8.48
2024-02-19T09:46:23.681Z,8.65
2024-02-19T09:48:51.916Z,8.75
2024-02-19T09:51:29.319Z,8.89
2024-02-19T09:54:01.184Z,8.87
2024-02-19T09:56:28.722Z,9.02
2024-02-19T09:58:56.525Z,9.16
2024-02-19T10:01:23.603Z,9.25
2024-02-19T10:03:52.409Z,9.38
2024-02-19T10:06:19.582Z,9.49
2024-02-19T10:08:46.830Z,9.21
2024-02-19T10:11:16.187Z,8.98
2024-02-19T10:13:43.743Z,8.78
2024-02-19T10:16:11.192Z,8.58
2024-02-19T10:18:39.319Z,8.55
2024-02-19T10:21:06.509Z,8.57
2024-02-19T10:23:34.120Z,8.69
2024-02-19T10:26:01.209Z,8.90
2024-02-19T10:28:29.904Z,9.25
2024-02-19T10:30:56.966Z,9.27
2024-02-19T10:33:23.871Z,9.23
2024-02-19T10:35:51.250Z,9.15
2024-02-19T10:38:18.307Z,9.04
2024-02-19T10:40:45.526Z,9.04
2024-02-19T10:43:12.873Z,9.08
2024-02-19T10:45:40.675Z,9.33
2024-02-19T10:48:09.085Z,9.44
2024-02-19T10:50:37.989Z,9.50
2024-02-19T10:53:07.154Z,9.62
2024-02-19T10:55:45.939Z,9.72
2024-02-19T10:58:26.689Z,9.72
2024-02-19T11:00:59.036Z,9.62
2024-02-19T11:03:28.823Z,9.55
2024-02-19T11:06:01.106Z,9.47
2024-02-19T11:08:30.111Z,9.42
2024-02-19T11:10:58.796Z,9.35
2024-02-19T11:13:28.958Z,9.35
2024-02-19T11:15:56.965Z,9.41
2024-02-19T11:18:24.214Z,9.65
2024-02-19T11:20:53.063Z,10.09
2024-02-19T11:23:21.657Z,10.55
2024-02-19T11:25:49.311Z,11.09
2024-02-19T11:28:16.404Z,11.17
2024-02-19T11:30:43.686Z,11.11
2024-02-19T11:33:12.767Z,10.94
2024-02-19T11:35:44.877Z,10.92
2024-02-19T11:38:12.535Z,10.65
2024-02-19T11:40:40.282Z,10.42
2024-02-19T11:43:07.427Z,10.10
2024-02-19T11:45:38.395Z,9.89
2024-02-19T11:48:06.415Z,9.72
2024-02-19T11:50:33.640Z,9.73
2024-02-19T11:53:03.195Z,9.70
2024-02-19T11:55:30.937Z,9.61
2024-02-19T11:58:02.548Z,9.44
2024-02-19T12:00:31.576Z,9.30
2024-02-19T12:02:59.407Z,9.15
2024-02-19T12:05:27.464Z,9.05
2024-02-19T12:07:54.632Z,8.96
2024-02-19T12:10:22.518Z,8.87
2024-02-19T12:12:51.415Z,8.83
2024-02-19T12:15:20.698Z,8.78
2024-02-19T12:17:49.905Z,8.72
2024-02-19T12:20:19.244Z,8.68
2024-02-19T12:22:46.370Z,8.63
2024-02-19T12:25:16.358Z,8.58
2024-02-19T12:27:43.515Z,8.52
2024-02-19T12:30:11.837Z,8.45
2024-02-19T12:32:40.699Z,8.41
2024-02-19T12:35:08.782Z,8.39
2024-02-19T12:37:39.378Z,8.32
2024-02-19T12:40:07.773Z,8.28
2024-02-19T12:42:35.189Z,8.25
2024-02-19T12:45:02.448Z,8.23
2024-02-19T12:47:29.392Z,8.16
2024-02-19T12:49:56.251Z,8.15
2024-02-19T12:52:25.003Z,8.11
2024-02-19T12:54:51.886Z,8.07
2024-02-19T12:57:21.227Z,8.03
2024-02-19T12:59:49.962Z,8.00
2024-02-19T13:02:17.865Z,8.00
2024-02-19T13:04:45.163Z,7.98
2024-02-19T13:07:12.504Z,7.95
2024-02-19T13:09:39.649Z,7.91
2024-02-19T13:12:08.708Z,7.90
2024-02-19T13:14:37.612Z,7.90
2024-02-19T13:17:13.129Z,7.86
2024-02-19T13:19:42.194Z,7.88
2024-02-19T13:22:11.152Z,7.89
2024-02-19T13:24:38.280Z,7.88
2024-02-19T13:27:05.900Z,7.87
2024-02-19T13:29:32.732Z,7.88
2024-02-19T13:32:00.115Z,7.87
2024-02-19T13:34:27.990Z,7.90
2024-02-19T13:36:55.947Z,7.90
2024-02-19T13:39:22.984Z,7.90
2024-02-19T13:41:50.915Z,7.92
2024-02-19T13:44:18.315Z,7.91
2024-02-19T13:46:47.087Z,7.90
2024-02-19T13:49:14.163Z,7.89
2024-02-19T13:51:41.356Z,7.87
2024-02-19T13:54:08.394Z,7.84
2024-02-19T13:56:36.429Z,7.83
2024-02-19T13:59:06.848Z,7.83
2024-02-19T14:01:34.928Z,7.81
2024-02-19T14:04:05.268Z,7.82
2024-02-19T14:06:32.474Z,7.80
2024-02-19T14:08:59.838Z,7.79
2024-02-19T14:11:27.729Z,7.77
2024-02-19T14:14:01.360Z,7.77
2024-02-19T14:16:30.729Z,7.77
2024-02-19T14:18:58.236Z,7.78
2024-02-19T14:21:26.809Z,7.79
2024-02-19T14:23:56.618Z,7.81
2024-02-19T14:26:29.799Z,7.81
2024-02-19T14:28:57.170Z,7.84
2024-02-19T14:31:24.440Z,7.83
2024-02-19T14:33:52.450Z,7.84
2024-02-19T14:36:25.934Z,7.83
2024-02-19T14:38:53.962Z,7.82
2024-02-19T14:41:22.487Z,7.85
2024-02-19T14:43:50.480Z,7.87
2024-02-19T14:46:19.551Z,7.86
2024-02-19T14:48:47.480Z,7.86
2024-02-19T14:51:18.959Z,7.85
2024-02-19T14:53:48.610Z,7.83
2024-02-19T14:56:16.119Z,7.83
2024-02-19T14:58:43.261Z,7.84
2024-02-19T15:01:10.477Z,7.83
2024-02-19T15:03:37.561Z,7.83
2024-02-19T15:06:07.190Z,7.81
2024-02-19T15:08:35.469Z,7.82
2024-02-19T15:11:03.186Z,7.80
2024-02-19T15:13:30.031Z,7.77
2024-02-19T15:15:57.744Z,7.79
2024-02-19T15:18:25.035Z,7.77
2024-02-19T15:20:53.810Z,7.78
2024-02-19T15:23:21.508Z,7.79
2024-02-19T15:25:49.800Z,7.78
2024-02-19T15:28:16.878Z,7.79
2024-02-19T15:30:44.300Z,7.79
2024-02-19T15:33:11.872Z,7.81
2024-02-19T15:35:38.986Z,7.81
2024-02-19T15:38:06.036Z,7.80
2024-02-19T15:40:36.022Z,7.80
2024-02-19T15:43:02.932Z,7.79
2024-02-19T15:45:30.354Z,7.78
2024-02-19T15:47:57.128Z,7.78
2024-02-19T15:50:24.311Z,7.78
2024-02-19T15:52:58.393Z,7.78
2024-02-19T15:55:31.846Z,7.78
2024-02-19T15:57:58.907Z,7.78
2024-02-19T16:00:26.304Z,7.79
2024-02-19T16:02:53.290Z,7.77
2024-02-19T16:05:20.602Z,7.79
2024-02-19T16:07:50.377Z,7.79
2024-02-19T16:10:17.466Z,7.77
2024-02-19T16:12:46.316Z,7.76
2024-02-19T16:15:14.037Z,7.74
2024-02-19T16:17:41.642Z,7.73
2024-02-19T16:20:09.364Z,7.70
2024-02-19T16:22:36.735Z,7.60
2024-02-19T16:25:08.177Z,7.52
2024-02-19T16:27:36.792Z,7.41
2024-02-19T16:30:06.480Z,7.33
2024-02-19T16:32:35.153Z,7.27
2024-02-19T16:35:02.507Z,7.19
2024-02-19T16:37:29.685Z,7.11
2024-02-19T16:39:57.074Z,7.07
2024-02-19T16:42:23.920Z,6.99
2024-02-19T16:44:51.102Z,6.91
2024-02-19T16:47:17.913Z,6.86
2024-02-19T16:49:46.902Z,6.81
2024-02-19T16:52:14.112Z,6.73
2024-02-19T16:54:41.314Z,6.66
2024-02-19T16:57:08.053Z,6.61
2024-02-19T16:59:36.042Z,6.57
2024-02-19T17:02:03.379Z,6.56
2024-02-19T17:04:30.560Z,6.53
2024-02-19T17:06:57.667Z,6.51
2024-02-19T17:09:24.977Z,6.51
2024-02-19T17:11:51.821Z,6.49
2024-02-19T17:14:18.833Z,6.48
2024-02-19T17:16:50.482Z,6.44
2024-02-19T17:19:17.851Z,6.43
2024-02-19T17:21:44.802Z,6.40
2024-02-19T17:24:11.896Z,6.37
2024-02-19T17:26:40.318Z,6.33
2024-02-19T17:29:07.457Z,6.28
2024-02-19T17:31:35.802Z,6.26
2024-02-19T17:34:04.508Z,6.24
2024-02-19T17:36:33.134Z,6.27
2024-02-19T17:39:00.247Z,6.27
2024-02-19T17:41:28.188Z,6.28
2024-02-19T17:43:55.181Z,6.29
2024-02-19T17:46:22.284Z,6.30
2024-02-19T17:48:49.886Z,6.29
2024-02-19T17:51:22.368Z,6.28
2024-02-19T17:53:50.021Z,6.28
2024-02-19T17:56:16.931Z,6.27
2024-02-19T17:58:44.052Z,6.27
2024-02-19T18:01:10.951Z,6.25
2024-02-19T18:03:38.283Z,6.19
2024-02-19T18:06:05.738Z,6.16
2024-02-19T18:08:34.284Z,6.10
2024-02-19T18:11:01.639Z,6.05
2024-02-19T18:13:28.874Z,6.01
2024-02-19T18:15:55.737Z,5.99
2024-02-19T18:18:23.110Z,5.97
2024-02-19T18:20:50.085Z,5.96
2024-02-19T18:23:17.137Z,5.95
2024-02-19T18:25:43.994Z,5.93
2024-02-19T18:28:11.371Z,5.95
2024-02-19T18:30:38.247Z,5.95
2024-02-19T18:33:05.835Z,5.94
2024-02-19T18:35:34.762Z,5.94
2024-02-19T18:38:01.912Z,5.94
2024-02-19T18:40:29.282Z,5.94
2024-02-19T18:42:56.522Z,5.94
2024-02-19T18:45:24.868Z,5.93
2024-02-19T18:47:52.012Z,5.94
2024-02-19T18:50:19.426Z,5.96
2024-02-19T18:52:46.892Z,5.98
2024-02-19T18:55:13.883Z,5.98
2024-02-19T18:57:41.093Z,5.97
2024-02-19T19:00:11.021Z,5.96
2024-02-19T19:02:39.264Z,5.93
2024-02-19T19:05:06.592Z,5.89
2024-02-19T19:07:34.515Z,5.86
2024-02-19T19:10:01.907Z,5.84
2024-02-19T19:12:29.111Z,5.84
2024-02-19T19:14:55.822Z,5.82
2024-02-19T19:17:23.061Z,5.83
2024-02-19T19:19:50.350Z,5.83
2024-02-19T19:22:20.107Z,5.82
2024-02-19T19:24:48.167Z,5.82
2024-02-19T19:27:15.496Z,5.83
2024-02-19T19:29:43.514Z,5.83
2024-02-19T19:32:11.696Z,5.83
2024-02-19T19:34:39.960Z,5.84
2024-02-19T19:37:07.160Z,5.86
2024-02-19T19:39:33.968Z,5.86
2024-02-19T19:42:01.583Z,5.89
2024-02-19T19:44:28.555Z,5.87
2024-02-19T19:46:57.587Z,5.90
2024-02-19T19:49:24.811Z,5.90
2024-02-19T19:51:51.986Z,5.92
2024-02-19T19:54:18.900Z,5.93
2024-02-19T19:56:46.128Z,5.93
2024-02-19T19:59:13.195Z,5.93
2024-02-19T20:01:40.491Z,5.95
2024-02-19T20:04:08.137Z,5.94
2024-02-19T20:06:36.736Z,5.95
2024-02-19T20:09:04.217Z,5.96
2024-02-19T20:11:31.448Z,5.98
2024-02-19T20:13:58.737Z,5.99
2024-02-19T20:16:26.085Z,5.99
2024-02-19T20:18:53.152Z,6.01
2024-02-19T20:21:23.079Z,6.02
2024-02-19T20:23:49.864Z,6.03
2024-02-19T20:26:20.086Z,6.03
2024-02-19T20:28:46.902Z,6.03
2024-02-19T20:31:16.018Z,6.06
2024-02-19T20:33:42.990Z,6.06
2024-02-19T20:36:12.385Z,6.05
2024-02-19T20:38:39.891Z,6.06
2024-02-19T20:41:07.116Z,6.06
2024-02-19T20:43:35.173Z,6.04
2024-02-19T20:46:02.479Z,6.03
2024-02-19T20:48:29.878Z,6.01
2024-02-19T20:50:58.426Z,6.00
2024-02-19T20:53:25.261Z,6.00
2024-02-19T20:55:52.682Z,6.02
2024-02-19T20:58:19.636Z,6.00
2024-02-19T21:00:47.252Z,6.02
2024-02-19T21:03:14.271Z,6.01
2024-02-19T21:05:41.620Z,6.01
2024-02-19T21:08:10.322Z,6.01
2024-02-19T21:10:39.385Z,6.02
2024-02-19T21:13:06.439Z,6.01
2024-02-19T21:15:34.239Z,6.01
2024-02-19T21:18:07.585Z,6.01
2024-02-19T21:20:35.252Z,6.00
2024-02-19T21:23:02.272Z,6.00
2024-02-19T21:25:29.780Z,6.02
2024-02-19T21:27:56.754Z,6.00
2024-02-19T21:30:23.959Z,6.01
2024-02-19T21:32:59.534Z,6.01
2024-02-19T21:35:27.451Z,5.99
2024-02-19T21:37:54.466Z,5.98
2024-02-19T21:40:22.130Z,5.96
2024-02-19T21:42:49.032Z,5.97
2024-02-19T21:45:17.566Z,5.97
2024-02-19T21:47:45.295Z,5.96
2024-02-19T21:50:12.630Z,5.96
2024-02-19T21:52:40.244Z,5.95
2024-02-19T21:55:08.550Z,5.96
2024-02-19T21:57:37.083Z,5.96
2024-02-19T22:00:09.437Z,5.96
2024-02-19T22:02:36.536Z,5.95
2024-02-19T22:05:05.062Z,5.96
2024-02-19T22:07:36.133Z,5.95
2024-02-19T22:10:06.506Z,5.98
2024-02-19T22:12:33.507Z,5.96
2024-02-19T22:15:01.053Z,5.95
2024-02-19T22:17:31.218Z,5.94
2024-02-19T22:19:58.509Z,5.94
2024-02-19T22:22:27.819Z,5.94
2024-02-19T22:24:55.310Z,5.92
2024-02-19T22:27:22.198Z,5.91
2024-02-19T22:29:49.415Z,5.91
2024-02-19T22:32:16.318Z,5.90
2024-02-19T22:34:46.665Z,5.90
2024-02-19T22:37:15.073Z,5.89
2024-02-19T22:39:43.522Z,5.87
2024-02-19T22:42:13.680Z,5.88
2024-02-19T22:44:44.107Z,5.89
2024-02-19T22:47:10.986Z,5.88
2024-02-19T22:49:39.594Z,5.85
2024-02-19T22:52:07.525Z,5.84
2024-02-19T22:54:35.274Z,5.82
2024-02-19T22:57:02.302Z,5.83
2024-02-19T22:59:29.570Z,5.83
2024-02-19T23:01:56.559Z,5.82
2024-02-19T23:04:24.052Z,5.83
2024-02-19T23:06:50.974Z,5.80
2024-02-19T23:09:18.086Z,5.80
2024-02-19T23:11:44.941Z,5.80
2024-02-19T23:14:12.046Z,5.80
2024-02-19T23:16:39.682Z,5.80
2024-02-19T23:19:07.659Z,5.81
2024-02-19T23:21:34.981Z,5.79
2024-02-19T23:24:03.541Z,5.77
2024-02-19T23:26:30.945Z,5.75
2024-02-19T23:28:58.015Z,5.74
2024-02-19T23:31:24.939Z,5.75
2024-02-19T23:33:52.195Z,5.75
2024-02-19T23:36:20.134Z,5.74
2024-02-19T23:38:47.205Z,5.73
2024-02-19T23:41:14.102Z,5.72
2024-02-19T23:43:43.766Z,5.70
2024-02-19T23:46:11.715Z,5.72
2024-02-19T23:48:38.752Z,5.69
2024-02-19T23:51:06.125Z,5.69
2024-02-19T23:53:33.966Z,5.68
2024-02-19T23:56:00.811Z,5.66
2024-02-19T23:58:27.970Z,5.65
